Huvudsida
METAR-TAF:

METAR-TAF

Flygplatser :

Kuwaits internationella flygplats

Kuwait, Kuwait

latitud: 29-13N, longitud: 047-59E, höjd: 55 m

Aktuellt väderrapport

Denna rapport gjordes för 52 minuter sedan, klockan 07:00 UTC
Vind 7 kt från syd/sydväst
Temperatur 22°C
Fuktighet 43%
Tryck 1020 hPa
Sikt 10 km eller mer
Inga moln under 1 500 m eller inga cumulonimbus

METAR: OKBK 220700Z 21007KT CAVOK 22/09 Q1020 NOSIG

Tid: 10:52 (07:52 UTC)

Väderprognos

Denna rapport gjordes för 3 timmar och 7 minuter sedan, klockan 04:45 UTC
Prognos gäller från 22 kl. 06 UTC till 23 kl. 12 UTC
Vind 12 kt från syd/sydost
Sikt: 7000 m
Temporärt
från 22 kl. 06 UTC till 22 kl. 10 UTC
Vind 3 kt varierande vindriktning
Sikt: 4000 m
torrdis

TAF: OKBK 220445Z 2206/2312 15012KT 7000 NSC TEMPO 2206/2210 VRB03KT 4000 HZ

Aktuella väderrapporter och prognoser från 4000 flygplatser (METAR- och TAF-rapporter).

De tillgängliga stationerna syns som gula och röda prickar på kartan.

För musen över prickarna för att se namnen på stationerna.

Klicka sedan för att få väderrapporter och prognoser.

För att ändra kartan: Klicka på de gröna knapparna med ett svart kors på för att zooma in; den gröna knappen med ett streck på för att zooma ut; eller på de gröna pilarna för angränsande kartor.


METAR-TAF: